Webcam

2022/12/09 04:50 EBBR 090450Z 20004KT 3900 BR FEW043 M02/M02 Q1006 NOSIG

Webcam

--- Refresh now ---